createdAt,value
2022-10-26T00:00:20.118Z,3.03
2022-10-26T00:05:05.147Z,3.20
2022-10-26T00:09:50.387Z,2.95
2022-10-26T00:14:35.727Z,2.80
2022-10-26T00:19:23.613Z,2.95
2022-10-26T00:24:09.043Z,3.05
2022-10-26T00:28:57.792Z,3.25
2022-10-26T00:33:43.101Z,3.00
2022-10-26T00:38:31.183Z,2.90
2022-10-26T00:43:36.894Z,2.95
2022-10-26T00:48:27.922Z,2.67
2022-10-26T00:53:15.305Z,2.50
2022-10-26T00:58:05.417Z,2.75
2022-10-26T01:02:53.700Z,3.13
2022-10-26T01:07:39.926Z,2.72
2022-10-26T01:12:25.073Z,3.10
2022-10-26T01:17:35.283Z,2.80
2022-10-26T01:22:23.537Z,3.15
2022-10-26T01:27:21.956Z,3.33
2022-10-26T01:32:15.939Z,3.30
2022-10-26T01:37:09.590Z,3.58
2022-10-26T01:41:58.806Z,3.45
2022-10-26T01:46:47.662Z,3.05
2022-10-26T01:51:36.127Z,3.17
2022-10-26T01:56:23.972Z,3.20
2022-10-26T02:01:24.075Z,3.58
2022-10-26T02:06:19.172Z,3.00
2022-10-26T02:11:16.509Z,2.60
2022-10-26T02:16:08.530Z,3.35
2022-10-26T02:20:58.333Z,2.80
2022-10-26T02:25:50.712Z,3.08
2022-10-26T02:35:28.424Z,3.00
2022-10-26T02:40:17.880Z,3.45
2022-10-26T02:45:07.950Z,3.67
2022-10-26T02:49:55.996Z,3.45
2022-10-26T02:54:51.599Z,2.83
2022-10-26T02:59:39.530Z,2.88
2022-10-26T03:04:31.916Z,3.05
2022-10-26T03:14:06.613Z,2.83
2022-10-26T03:18:51.673Z,2.88
2022-10-26T03:23:36.977Z,2.60
2022-10-26T03:28:24.576Z,3.50
2022-10-26T03:33:09.816Z,3.03
2022-10-26T03:37:54.988Z,2.95
2022-10-26T03:42:40.546Z,3.22
2022-10-26T03:47:28.165Z,2.80
2022-10-26T03:52:13.460Z,2.97
2022-10-26T03:56:58.412Z,2.85
2022-10-26T04:01:43.710Z,2.88
2022-10-26T04:06:31.361Z,2.42
2022-10-26T04:11:16.629Z,2.53
2022-10-26T04:16:01.864Z,2.58
2022-10-26T04:20:47.225Z,2.38
2022-10-26T04:25:36.401Z,2.20
2022-10-26T04:30:21.746Z,2.75
2022-10-26T04:35:07.094Z,2.35
2022-10-26T04:39:52.479Z,3.28
2022-10-26T04:44:40.096Z,2.58
2022-10-26T04:49:25.378Z,1.80
2022-10-26T04:54:10.419Z,2.13
2022-10-26T04:58:57.149Z,2.22
2022-10-26T05:03:44.725Z,2.65
2022-10-26T05:08:31.894Z,2.50
2022-10-26T05:13:16.913Z,3.33
2022-10-26T05:18:03.739Z,2.40
2022-10-26T05:22:55.722Z,2.35
2022-10-26T05:27:41.109Z,2.35
2022-10-26T05:32:26.089Z,2.75
2022-10-26T05:37:11.306Z,1.92
2022-10-26T05:41:58.975Z,2.05
2022-10-26T05:46:44.249Z,2.17
2022-10-26T05:51:29.259Z,2.63
2022-10-26T05:56:21.971Z,2.58
2022-10-26T06:01:22.431Z,2.40
2022-10-26T06:06:10.356Z,3.05
2022-10-26T06:10:56.953Z,2.72
2022-10-26T06:15:55.642Z,2.88
2022-10-26T06:21:01.288Z,2.50
2022-10-26T06:25:58.260Z,2.30
2022-10-26T06:30:43.928Z,1.90
2022-10-26T06:35:40.605Z,2.63
2022-10-26T06:40:29.720Z,2.53
2022-10-26T06:45:17.148Z,2.90
2022-10-26T06:50:13.197Z,2.55
2022-10-26T06:54:59.447Z,2.10
2022-10-26T06:59:51.199Z,2.50
2022-10-26T07:09:21.194Z,2.88
2022-10-26T07:14:06.456Z,2.55
2022-10-26T07:18:54.050Z,2.80
2022-10-26T07:23:39.317Z,2.75
2022-10-26T07:28:24.298Z,2.45
2022-10-26T07:33:12.621Z,2.90
2022-10-26T07:38:04.431Z,2.85
2022-10-26T07:47:34.687Z,2.50
2022-10-26T07:52:20.131Z,2.50
2022-10-26T07:57:07.750Z,2.30
2022-10-26T08:01:53.112Z,2.22
2022-10-26T08:06:38.269Z,2.15
2022-10-26T08:11:23.607Z,2.15
2022-10-26T08:16:12.027Z,2.58
2022-10-26T08:21:01.911Z,2.05
2022-10-26T08:25:55.248Z,1.70
2022-10-26T08:30:40.534Z,2.35
2022-10-26T08:35:28.141Z,2.47
2022-10-26T08:40:19.558Z,2.17
2022-10-26T08:45:07.225Z,2.13
2022-10-26T08:49:59.249Z,2.00
2022-10-26T08:54:51.964Z,2.58
2022-10-26T08:59:41.217Z,2.17
2022-10-26T09:04:30.580Z,2.10
2022-10-26T09:09:20.056Z,2.13
2022-10-26T09:14:16.604Z,2.17
2022-10-26T09:19:29.674Z,2.28
2022-10-26T09:24:17.702Z,1.85
2022-10-26T09:29:09.839Z,1.80
2022-10-26T09:33:56.418Z,2.30
2022-10-26T09:38:45.141Z,1.98
2022-10-26T09:43:36.237Z,2.45
2022-10-26T09:48:30.908Z,1.95
2022-10-26T09:53:16.178Z,2.08
2022-10-26T09:58:04.929Z,1.77
2022-10-26T10:02:54.220Z,2.13
2022-10-26T10:07:41.869Z,2.40
2022-10-26T10:12:28.509Z,1.83
2022-10-26T10:17:24.721Z,1.73
2022-10-26T10:22:15.252Z,2.20
2022-10-26T10:27:05.971Z,2.60
2022-10-26T10:31:58.882Z,2.10
2022-10-26T10:36:43.897Z,1.90
2022-10-26T10:41:32.356Z,2.15
2022-10-26T10:46:25.809Z,2.00
2022-10-26T10:51:13.165Z,2.40
2022-10-26T10:56:26.524Z,2.03
2022-10-26T11:01:16.977Z,2.35
2022-10-26T11:06:13.193Z,2.10
2022-10-26T11:11:06.033Z,2.00
2022-10-26T11:15:55.789Z,2.25
2022-10-26T11:20:45.954Z,1.80
2022-10-26T11:25:38.808Z,1.90
2022-10-26T11:30:25.995Z,2.13
2022-10-26T11:35:17.876Z,2.15
2022-10-26T11:40:13.066Z,1.55
2022-10-26T11:45:07.371Z,2.00
2022-10-26T11:50:00.869Z,1.70
2022-10-26T11:54:52.376Z,2.78
2022-10-26T11:59:45.007Z,2.17
2022-10-26T12:04:35.619Z,2.10
2022-10-26T12:09:25.101Z,2.08
2022-10-26T12:14:21.996Z,2.13
2022-10-26T12:19:12.672Z,2.45
2022-10-26T12:24:02.173Z,2.85
2022-10-26T12:28:51.005Z,2.33
2022-10-26T12:33:52.565Z,2.17
2022-10-26T12:39:02.275Z,1.90
2022-10-26T12:43:51.147Z,2.33
2022-10-26T12:48:44.170Z,2.20
2022-10-26T12:53:29.639Z,2.75
2022-10-26T12:58:55.754Z,2.80
2022-10-26T13:03:56.910Z,2.25
2022-10-26T13:08:45.418Z,2.53
2022-10-26T13:13:34.359Z,2.13
2022-10-26T13:18:22.155Z,2.40
2022-10-26T13:23:19.393Z,2.20
2022-10-26T13:28:08.638Z,2.10
2022-10-26T13:32:57.067Z,2.63
2022-10-26T13:37:47.468Z,1.90
2022-10-26T13:42:42.104Z,1.98
2022-10-26T13:47:32.179Z,2.33
2022-10-26T13:52:21.443Z,1.77
2022-10-26T13:57:20.031Z,1.80
2022-10-26T14:02:30.536Z,1.23
2022-10-26T14:07:21.102Z,1.40
2022-10-26T14:12:06.504Z,1.10
2022-10-26T14:16:53.329Z,1.13
2022-10-26T14:21:50.112Z,1.10
2022-10-26T14:26:43.330Z,0.93
2022-10-26T14:31:30.785Z,0.93
2022-10-26T14:36:17.191Z,1.05
2022-10-26T14:41:05.399Z,1.23
2022-10-26T14:45:52.498Z,1.20
2022-10-26T14:50:37.675Z,0.95
2022-10-26T14:55:23.150Z,1.10
2022-10-26T15:00:18.399Z,1.20
2022-10-26T15:05:06.011Z,1.13
2022-10-26T15:09:53.305Z,1.17
2022-10-26T15:14:39.199Z,0.73
2022-10-26T15:19:28.547Z,1.20
2022-10-26T15:24:33.166Z,0.98
2022-10-26T15:29:39.656Z,1.00
2022-10-26T15:34:28.663Z,1.13
2022-10-26T15:39:13.735Z,0.85
2022-10-26T15:44:01.565Z,0.90
2022-10-26T15:48:50.691Z,1.00
2022-10-26T15:53:39.191Z,0.98
2022-10-26T15:58:24.755Z,1.20
2022-10-26T16:03:13.500Z,0.88
2022-10-26T16:07:58.701Z,1.30
2022-10-26T16:12:46.682Z,1.00
2022-10-26T16:17:32.489Z,2.15
2022-10-26T16:22:17.852Z,1.30
2022-10-26T16:27:02.994Z,1.13
2022-10-26T16:31:51.338Z,1.20
2022-10-26T16:36:38.754Z,1.20
2022-10-26T16:46:11.143Z,1.38
2022-10-26T16:50:59.088Z,1.25
2022-10-26T16:55:44.321Z,1.25
2022-10-26T17:00:29.755Z,1.23
2022-10-26T17:05:14.822Z,1.42
2022-10-26T17:10:03.150Z,1.48
2022-10-26T17:14:48.319Z,1.50
2022-10-26T17:19:33.662Z,1.40
2022-10-26T17:24:19.160Z,1.50
2022-10-26T17:29:07.163Z,1.30
2022-10-26T17:33:52.519Z,1.60
2022-10-26T17:38:39.532Z,2.70
2022-10-26T17:43:24.670Z,2.10
2022-10-26T17:48:12.852Z,3.17
2022-10-26T17:52:58.278Z,4.80
2022-10-26T17:57:43.587Z,12.68
2022-10-26T18:02:30.147Z,13.73
2022-10-26T18:07:18.200Z,14.02
2022-10-26T18:12:03.236Z,17.70
2022-10-26T18:16:48.548Z,6.05
2022-10-26T18:21:37.509Z,8.40
2022-10-26T18:26:28.586Z,8.15
2022-10-26T18:31:15.425Z,5.95
2022-10-26T18:36:05.196Z,3.47
2022-10-26T18:40:55.443Z,4.18
2022-10-26T18:45:44.325Z,2.63
2022-10-26T18:50:29.458Z,3.17
2022-10-26T18:55:14.783Z,10.82
2022-10-26T18:59:59.858Z,10.02
2022-10-26T19:04:47.791Z,8.85
2022-10-26T19:09:32.897Z,5.30
2022-10-26T19:14:18.254Z,3.33
2022-10-26T19:19:03.398Z,3.70
2022-10-26T19:23:53.434Z,2.60
2022-10-26T19:28:38.563Z,3.25
2022-10-26T19:33:23.901Z,2.70
2022-10-26T19:38:08.994Z,2.20
2022-10-26T19:42:56.953Z,1.90
2022-10-26T19:47:41.971Z,1.80
2022-10-26T19:52:27.556Z,1.88
2022-10-26T19:57:12.655Z,1.90
2022-10-26T20:02:00.586Z,1.85
2022-10-26T20:06:45.670Z,1.75
2022-10-26T20:11:32.535Z,2.30
2022-10-26T20:16:19.960Z,1.75
2022-10-26T20:21:09.984Z,2.20
2022-10-26T20:25:55.866Z,1.92
2022-10-26T20:30:42.231Z,1.80
2022-10-26T20:35:27.725Z,2.03
2022-10-26T20:40:17.828Z,1.80
2022-10-26T20:45:09.878Z,2.30
2022-10-26T20:49:55.959Z,2.33
2022-10-26T20:54:47.750Z,2.78
2022-10-26T20:59:42.078Z,2.53
2022-10-26T21:04:27.190Z,2.97
2022-10-26T21:09:12.540Z,3.10
2022-10-26T21:13:58.200Z,2.80
2022-10-26T21:18:46.531Z,3.50
2022-10-26T21:23:34.924Z,3.70
2022-10-26T21:28:20.279Z,3.50
2022-10-26T21:33:05.304Z,4.15
2022-10-26T21:37:53.321Z,3.80
2022-10-26T21:42:38.534Z,4.07
2022-10-26T21:47:23.956Z,4.35
2022-10-26T21:52:09.945Z,4.45
2022-10-26T21:56:57.907Z,5.07
2022-10-26T22:01:43.047Z,5.60
2022-10-26T22:06:28.381Z,5.28
2022-10-26T22:11:15.845Z,5.43
2022-10-26T22:16:10.513Z,6.45
2022-10-26T22:20:59.451Z,5.68
2022-10-26T22:25:46.791Z,5.90
2022-10-26T22:30:32.428Z,6.38
2022-10-26T22:35:35.589Z,6.80
2022-10-26T22:40:20.913Z,6.68
2022-10-26T22:45:06.160Z,7.18
2022-10-26T22:49:51.516Z,7.28
2022-10-26T22:54:39.097Z,7.88
2022-10-26T22:59:24.354Z,8.00
2022-10-26T23:04:09.386Z,7.22
2022-10-26T23:08:54.846Z,7.78
2022-10-26T23:13:43.051Z,7.68
2022-10-26T23:18:28.374Z,7.70
2022-10-26T23:23:13.447Z,8.35
2022-10-26T23:27:58.697Z,7.38
2022-10-26T23:32:46.615Z,7.80
2022-10-26T23:37:31.967Z,7.78
2022-10-26T23:42:16.982Z,7.38
2022-10-26T23:47:02.230Z,7.97
2022-10-26T23:51:49.854Z,8.00
2022-10-26T23:56:35.127Z,7.88
